Time;durP1;ratioP1;P1;durP2;ratioP2;P2;SDS_P1;SDS_P2;PMS_P1;PMS_P2;Temp;Humidity;BMP_temperature;BMP_pressure;BME280_temperature;BME280_humidity;BME280_pressure;Samples;Min_cycle;Max_cycle;Signal;HPM_P1;HPM_P2
2022/03/14 00:00:11;;;;;;;;;5.50;3.00;;;;;8.82;71.82;101248.09;4999049;28;46834;-71
2022/03/14 00:02:38;;;;;;;;;1.75;1.75;;;;;8.80;71.48;101253.44;5015546;28;44652;-74
2022/03/14 00:05:05;;;;;;;;;3.00;3.00;;;;;8.70;71.74;101248.53;5018195;28;44813;-72
2022/03/14 00:07:34;;;;;;;;;6.25;4.00;;;;;8.73;71.36;101249.31;5013599;28;46037;-73
2022/03/14 00:10:00;;;;;;;;;6.00;2.00;;;;;8.81;71.39;101270.22;4998369;28;46878;-63
2022/03/14 00:12:26;;;;;;;;;5.25;1.75;;;;;8.75;71.77;101266.03;5018223;28;44937;-73
2022/03/14 00:14:56;;;;;;;;;2.50;2.00;;;;;8.70;70.87;101253.84;5017892;28;45432;-66
2022/03/14 00:17:24;;;;;;;;;3.00;3.00;;;;;8.83;70.78;101266.59;5018304;28;44855;-74
2022/03/14 00:19:50;;;;;;;;;4.25;2.00;;;;;8.92;71.58;101288.38;5016356;28;45275;-72
2022/03/14 00:22:19;;;;;;;;;2.00;1.00;;;;;8.78;70.22;101271.22;5015970;28;44788;-68
2022/03/14 00:24:45;;;;;;;;;4.00;2.00;;;;;8.93;71.24;101298.06;5013519;28;45151;-66
2022/03/14 00:27:11;;;;;;;;;3.00;3.00;;;;;8.93;70.48;101300.72;5010019;28;45667;-65
2022/03/14 00:29:37;;;;;;;;;1.25;1.25;;;;;8.91;70.98;101307.88;5010423;28;46072;-73
2022/03/14 00:32:02;;;;;;;;;3.00;2.00;;;;;8.93;70.33;101316.66;5010047;28;44829;-67
2022/03/14 00:34:28;;;;;;;;;5.00;2.25;;;;;8.90;70.46;101312.31;5009328;28;46819;-73
2022/03/14 00:36:54;;;;;;;;;1.00;1.00;;;;;8.90;71.10;101322.06;5010110;28;45810;-67
2022/03/14 00:39:19;;;;;;;;;1.00;1.00;;;;;8.88;70.88;101332.75;5008894;28;47183;-66
2022/03/14 00:41:45;;;;;;;;;3.50;2.00;;;;;8.95;69.84;101336.00;5012828;28;45373;-63
2022/03/14 00:44:15;;;;;;;;;1.50;1.00;;;;;8.92;70.62;101329.03;5011999;28;44885;-70
2022/03/14 00:46:41;;;;;;;;;2.00;2.00;;;;;9.01;69.96;101349.06;5013523;28;45254;-71
2022/03/14 00:49:07;;;;;;;;;5.00;1.00;;;;;8.98;70.08;101336.75;5013059;28;45242;-73
2022/03/14 00:51:34;;;;;;;;;3.00;1.00;;;;;9.04;70.33;101343.63;5016502;28;45678;-69
2022/03/14 00:54:00;;;;;;;;;2.00;2.00;;;;;9.05;70.67;101348.88;5019568;28;44778;-63
2022/03/14 00:56:26;;;;;;;;;2.00;2.00;;;;;9.09;69.87;101353.16;5023065;28;44988;-70
2022/03/14 00:58:52;;;;;;;;;1.00;1.00;;;;;9.10;70.11;101362.84;5018879;28;46232;-69
2022/03/14 01:01:17;;;;;;;;;1.00;1.00;;;;;9.04;69.93;101365.72;5018049;28;45580;-69
2022/03/14 01:03:43;;;;;;;;;1.50;1.50;;;;;9.06;69.98;101378.94;5011944;28;45294;-69
2022/03/14 01:06:08;;;;;;;;;5.00;1.00;;;;;9.04;70.08;101370.16;5010393;28;45138;-66
2022/03/14 01:08:33;;;;;;;;;2.50;1.25;;;;;8.98;69.76;101379.22;5009908;28;46134;-73
2022/03/14 01:10:59;;;;;;;;;6.25;1.50;;;;;9.03;69.87;101392.31;5011444;28;45606;-73
2022/03/14 01:13:25;;;;;;;;;2.00;1.00;;;;;9.05;69.85;101395.78;5022551;28;45280;-72
2022/03/14 01:15:51;;;;;;;;;3.00;2.00;;;;;9.00;69.45;101390.66;5009519;28;45377;-70
2022/03/14 01:18:17;;;;;;;;;2.75;2.75;;;;;8.97;70.00;101381.91;5008730;28;45561;-68
2022/03/14 01:20:42;;;;;;;;;0.25;0.25;;;;;9.10;69.51;101412.38;5005858;28;45426;-69
2022/03/14 01:23:08;;;;;;;;;5.00;2.00;;;;;9.11;69.53;101414.13;5007924;28;45427;-68
2022/03/14 01:25:34;;;;;;;;;2.00;2.00;;;;;8.99;70.10;101402.19;5004560;28;45779;-66
2022/03/14 01:27:59;;;;;;;;;3.50;1.75;;;;;9.11;69.25;101416.78;5003509;28;45374;-67
2022/03/14 01:30:25;;;;;;;;;2.50;1.00;;;;;9.12;69.74;101418.53;5001192;28;45547;-66
2022/03/14 01:32:50;;;;;;;;;1.00;1.00;;;;;9.19;69.82;101433.28;5002076;28;45686;-69
2022/03/14 01:35:19;;;;;;;;;1.00;1.00;;;;;9.14;68.86;101427.28;4999503;28;45435;-71
2022/03/14 01:37:49;;;;;;;;;4.25;2.75;;;;;9.24;69.14;101439.28;4996550;28;45602;-66
2022/03/14 01:40:18;;;;;;;;;1.75;1.75;;;;;9.22;69.40;101441.13;5001010;28;45404;-68
2022/03/14 01:42:44;;;;;;;;;3.50;2.00;;;;;9.11;68.73;101422.06;5003473;28;45448;-68
2022/03/14 01:45:10;;;;;;;;;3.00;2.00;;;;;9.17;69.30;101427.16;5014801;28;45260;-64
2022/03/14 01:47:38;;;;;;;;;2.00;1.00;;;;;9.16;68.66;101431.63;5008921;28;45393;-68
2022/03/14 01:50:05;;;;;;;;;2.00;2.00;;;;;9.19;68.77;101433.28;5008365;28;45300;-67
2022/03/14 01:52:31;;;;;;;;;2.00;1.00;;;;;9.13;69.14;101431.75;5008716;28;45265;-64
2022/03/14 01:54:57;;;;;;;;;0.50;0.50;;;;;9.22;68.74;101446.44;5010591;28;45356;-72
2022/03/14 01:57:22;;;;;;;;;3.75;0.75;;;;;9.20;69.06;101442.97;4978251;28;46181;-72
2022/03/14 01:59:47;;;;;;;;;1.00;1.00;;;;;9.25;68.80;101448.13;5015536;28;45207;-67
2022/03/14 02:02:13;;;;;;;;;1.00;1.00;;;;;9.26;69.01;101453.38;4993060;28;45660;-68
2022/03/14 02:04:38;;;;;;;;;3.00;3.00;;;;;9.25;68.78;101456.97;5010443;28;45298;-70
2022/03/14 02:07:04;;;;;;;;;2.00;1.00;;;;;9.22;69.20;101454.41;4994429;28;46826;-70
2022/03/14 02:09:30;;;;;;;;;1.00;1.00;;;;;9.21;69.11;101460.63;4989088;28;45609;-62
2022/03/14 02:11:55;;;;;;;;;4.50;1.75;;;;;9.17;69.24;101448.41;5003214;28;45376;-63
2022/03/14 02:14:21;;;;;;;;;2.00;2.00;;;;;9.13;68.59;101447.66;5007392;28;45577;-64
2022/03/14 02:16:47;;;;;;;;;2.50;1.00;;;;;9.14;69.19;101456.50;5011419;28;45717;-68
2022/03/14 02:19:13;;;;;;;;;3.00;1.75;;;;;9.16;69.22;101451.97;5004554;28;45235;-69
2022/03/14 02:21:39;;;;;;;;;3.00;1.00;;;;;9.12;69.10;101456.53;5003358;28;45340;-71
2022/03/14 02:24:04;;;;;;;;;3.00;1.00;;;;;9.10;69.08;101454.84;5001856;28;45469;-72
2022/03/14 02:26:30;;;;;;;;;3.00;1.75;;;;;8.92;69.31;101437.81;5005424;28;47036;-68
2022/03/14 02:28:55;;;;;;;;;3.50;1.50;;;;;9.08;69.77;101472.63;5008193;28;45174;-71
2022/03/14 02:31:21;;;;;;;;;2.00;2.00;;;;;9.03;69.77;101467.47;5013002;28;45369;-65
2022/03/14 02:33:46;;;;;;;;;1.75;0.75;;;;;8.98;69.80;101458.81;5010802;28;45748;-60
2022/03/14 02:36:12;;;;;;;;;0.75;0.75;;;;;8.95;69.38;101450.09;5010709;28;46342;-69
2022/03/14 02:38:37;;;;;;;;;1.75;1.75;;;;;9.06;70.10;101466.50;5004679;28;45376;-71
2022/03/14 02:41:02;;;;;;;;;0.75;0.75;;;;;9.01;69.28;101469.31;5008557;28;45548;-71
2022/03/14 02:43:28;;;;;;;;;1.00;1.00;;;;;8.91;69.76;101451.13;5009528;28;45464;-72
2022/03/14 02:45:54;;;;;;;;;1.50;1.00;;;;;9.00;70.12;101477.34;5008342;28;46294;-67
2022/03/14 02:48:23;;;;;;;;;7.00;1.75;;;;;8.95;70.27;101479.28;4983533;28;45271;-72
2022/03/14 02:50:53;;;;;;;;;1.50;1.50;;;;;8.94;70.24;101488.16;4985852;28;45460;-62
2022/03/14 02:53:19;;;;;;;;;2.00;2.00;;;;;8.93;69.69;101483.78;5006943;28;45314;-70
2022/03/14 02:55:44;;;;;;;;;3.00;1.75;;;;;8.91;69.93;101505.06;5000362;28;46135;-67
2022/03/14 02:58:10;;;;;;;;;1.00;1.00;;;;;8.90;70.42;101513.94;5010949;28;45407;-68
2022/03/14 03:00:36;;;;;;;;;1.50;1.50;;;;;8.89;70.48;101516.66;5007243;28;44771;-66
2022/03/14 03:03:03;;;;;;;;;4.75;1.00;;;;;8.81;70.25;101500.97;5008686;28;47112;-69
2022/03/14 03:05:31;;;;;;;;;2.00;2.00;;;;;8.84;70.36;101515.00;5028530;28;45448;-60
2022/03/14 03:08:01;;;;;;;;;5.00;2.00;;;;;8.88;70.51;101520.22;5012036;28;45456;-66
2022/03/14 03:10:33;;;;;;;;;4.50;1.00;;;;;8.92;70.60;101532.44;4998005;28;45848;-69
2022/03/14 03:12:58;;;;;;;;;2.00;2.00;;;;;8.88;70.38;101530.81;5017898;28;45325;-69
2022/03/14 03:15:25;;;;;;;;;4.50;2.75;;;;;8.84;70.75;101533.56;5003450;28;46752;-68
2022/03/14 03:17:51;;;;;;;;;4.00;1.50;;;;;8.92;70.78;101553.66;5009105;28;44841;-63
2022/03/14 03:20:16;;;;;;;;;2.75;1.75;;;;;8.94;70.14;101554.47;5006123;28;45175;-71
2022/03/14 03:22:42;;;;;;;;;3.25;1.75;;;;;8.90;71.01;101566.13;5006335;28;45482;-75
2022/03/14 03:25:08;;;;;;;;;1.50;0.50;;;;;8.88;70.71;101568.84;4989347;28;45913;-70
2022/03/14 03:27:33;;;;;;;;;6.75;2.25;;;;;8.88;70.51;101563.53;5009714;28;45483;-67
2022/03/14 03:30:00;;;;;;;;;4.50;2.50;;;;;8.89;70.00;101564.41;5012855;28;44841;-73
2022/03/14 03:32:25;;;;;;;;;3.00;3.00;;;;;8.91;70.42;101573.16;4988379;28;45349;-65
2022/03/14 03:34:51;;;;;;;;;2.00;2.00;;;;;8.93;70.35;101589.88;5000603;28;45424;-63
2022/03/14 03:37:17;;;;;;;;;3.00;2.00;;;;;8.82;70.07;101575.19;5000428;28;45594;-74
2022/03/14 03:39:42;;;;;;;;;2.50;2.00;;;;;8.84;70.79;101578.66;5002564;28;45392;-65
2022/03/14 03:42:08;;;;;;;;;2.00;2.00;;;;;8.80;70.90;101578.81;5010263;28;44842;-65
2022/03/14 03:44:34;;;;;;;;;2.50;1.00;;;;;8.78;71.02;101583.31;5009525;28;46281;-62
2022/03/14 03:47:00;;;;;;;;;2.00;2.00;;;;;8.85;70.91;101603.41;5010452;28;45349;-71
2022/03/14 03:49:26;;;;;;;;;2.50;1.50;;;;;8.82;70.22;101609.66;5010863;28;45716;-64
2022/03/14 03:51:51;;;;;;;;;5.00;5.00;;;;;8.75;70.33;101600.19;5010741;28;44869;-69
2022/03/14 03:54:17;;;;;;;;;5.50;1.00;;;;;8.79;70.81;101611.56;5006028;28;45613;-69
2022/03/14 03:56:42;;;;;;;;;3.00;2.00;;;;;8.71;70.98;101595.88;5010422;28;45581;-70
2022/03/14 03:59:08;;;;;;;;;2.25;2.25;;;;;8.77;71.08;101608.97;5014466;28;45784;-63
2022/03/14 04:01:33;;;;;;;;;2.25;1.75;;;;;8.73;70.67;101607.34;5014384;28;45360;-60
2022/03/14 04:04:01;;;;;;;;;5.00;1.00;;;;;8.72;70.59;101616.19;5009602;28;45432;-60
2022/03/14 04:06:28;;;;;;;;;5.00;2.25;;;;;8.58;70.72;101606.00;5015628;28;44829;-63
2022/03/14 04:08:54;;;;;;;;;2.00;2.00;;;;;8.71;70.85;101629.50;5017019;28;45183;-70
2022/03/14 04:11:21;;;;;;;;;3.00;2.00;;;;;8.69;70.17;101637.50;5015535;28;44910;-69
2022/03/14 04:13:48;;;;;;;;;5.25;2.00;;;;;8.61;70.90;101628.94;5010835;28;46758;-68
2022/03/14 04:16:17;;;;;;;;;2.75;2.00;;;;;8.56;70.85;101625.53;5028236;28;44765;-68
2022/03/14 04:18:42;;;;;;;;;2.00;2.00;;;;;8.59;70.82;101636.06;5021437;28;45132;-69
2022/03/14 04:21:08;;;;;;;;;1.75;1.75;;;;;8.62;70.77;101656.31;5017565;28;44865;-68
2022/03/14 04:23:34;;;;;;;;;1.00;1.00;;;;;8.55;70.36;101645.03;4995402;28;45416;-67
2022/03/14 04:25:59;;;;;;;;;1.00;1.00;;;;;8.58;70.62;101650.22;5009463;28;45424;-64
2022/03/14 04:28:25;;;;;;;;;1.50;1.50;;;;;8.60;70.40;101664.34;5015058;28;45238;-66
2022/03/14 04:30:50;;;;;;;;;1.75;1.50;;;;;8.54;71.03;101645.94;5013638;28;44994;-67
2022/03/14 04:33:15;;;;;;;;;2.00;1.50;;;;;8.53;70.53;101653.03;5001792;28;45473;-77
2022/03/14 04:35:42;;;;;;;;;5.25;2.75;;;;;8.55;71.08;101655.63;5009826;28;45378;-70
2022/03/14 04:38:07;;;;;;;;;3.50;1.75;;;;;8.54;70.30;101673.31;5006823;28;45420;-74
2022/03/14 04:40:33;;;;;;;;;2.50;2.00;;;;;8.48;70.24;101664.72;4999290;28;45464;-75
2022/03/14 04:43:06;;;;;;;;;3.50;2.50;;;;;8.47;70.56;101676.22;4996978;28;45777;-76
2022/03/14 04:45:32;;;;;;;;;2.50;2.50;;;;;8.42;70.46;101686.06;4992846;28;45810;-74
2022/03/14 04:47:59;;;;;;;;;4.50;2.00;;;;;8.43;70.18;101695.75;5007092;28;45332;-69
2022/03/14 04:50:24;;;;;;;;;1.00;1.00;;;;;8.40;70.31;101693.22;5012600;28;45337;-63
2022/03/14 04:52:49;;;;;;;;;2.25;2.25;;;;;8.43;70.76;101693.13;4996591;28;45526;-71
2022/03/14 04:55:15;;;;;;;;;5.00;1.25;;;;;8.44;70.76;101694.84;5010296;28;44781;-68
2022/03/14 04:57:40;;;;;;;;;6.00;4.25;;;;;8.41;70.71;101703.75;5004044;28;45446;-71
2022/03/14 05:00:08;;;;;;;;;1.00;1.00;;;;;8.42;70.47;101702.84;5008340;28;45603;-74
2022/03/14 05:02:34;;;;;;;;;5.50;4.00;;;;;8.38;70.39;101713.59;4996303;28;45499;-68
2022/03/14 05:05:00;;;;;;;;;5.00;2.00;;;;;8.36;70.77;101712.78;4983336;28;45436;-68
2022/03/14 05:07:25;;;;;;;;;9.00;2.00;;;;;8.20;70.38;101699.03;5003748;28;45227;-67
2022/03/14 05:09:51;;;;;;;;;5.00;2.00;;;;;8.25;70.01;101710.41;5004918;28;45363;-69
2022/03/14 05:12:16;;;;;;;;;2.50;1.00;;;;;8.11;70.27;101708.13;5012897;28;46335;-66
2022/03/14 05:14:42;;;;;;;;;2.75;2.75;;;;;8.10;70.57;101709.06;4993945;28;45558;-66
2022/03/14 05:17:08;;;;;;;;;5.00;2.75;;;;;8.06;70.55;101720.63;4999299;28;45444;-67
2022/03/14 05:19:34;;;;;;;;;3.25;1.75;;;;;7.98;70.46;101715.56;5000920;28;45469;-74
2022/03/14 05:22:00;;;;;;;;;3.25;1.25;;;;;7.99;70.96;101732.31;5001822;28;46237;-68
2022/03/14 05:24:25;;;;;;;;;4.50;3.25;;;;;7.99;70.44;101740.28;4990451;28;45420;-65
2022/03/14 05:26:54;;;;;;;;;8.00;3.25;;;;;7.96;70.70;101746.53;4994302;28;45567;-67
2022/03/14 05:29:20;;;;;;;;;8.50;5.00;;;;;7.84;70.92;101736.25;5006531;28;45418;-73
2022/03/14 05:31:46;;;;;;;;;2.50;2.00;;;;;7.89;71.63;101754.66;4986933;28;46549;-69
2022/03/14 05:34:11;;;;;;;;;2.25;2.00;;;;;7.85;71.29;101750.38;5002382;28;45452;-70
2022/03/14 05:36:37;;;;;;;;;3.75;2.00;;;;;7.69;71.18;101728.72;5007285;28;45322;-66
2022/03/14 05:39:04;;;;;;;;;4.00;2.25;;;;;7.79;71.18;101747.84;5012548;28;45562;-68
2022/03/14 05:41:30;;;;;;;;;5.25;3.75;;;;;7.79;71.03;101742.56;5015741;28;45737;-68
2022/03/14 05:43:55;;;;;;;;;5.00;3.75;;;;;7.83;70.93;101747.75;5012357;28;45700;-71
2022/03/14 05:46:20;;;;;;;;;1.25;1.25;;;;;7.78;71.35;101752.28;5013830;28;47080;-69
2022/03/14 05:48:46;;;;;;;;;4.75;4.75;;;;;7.83;72.01;101762.78;4996164;28;44945;-66
2022/03/14 05:51:12;;;;;;;;;9.00;5.50;;;;;7.75;71.64;101759.44;5002250;28;45567;-62
2022/03/14 05:53:37;;;;;;;;;4.00;4.00;;;;;7.77;71.26;101762.94;5009624;28;44723;-63
2022/03/14 05:56:04;;;;;;;;;4.75;4.75;;;;;7.79;71.67;101777.84;5012078;28;45255;-63
2022/03/14 05:58:30;;;;;;;;;2.75;2.75;;;;;7.82;71.64;101772.50;4996277;28;45774;-67
2022/03/14 06:00:56;;;;;;;;;8.00;4.00;;;;;7.78;71.73;101769.97;4992223;28;47133;-68
2022/03/14 06:03:22;;;;;;;;;6.00;4.00;;;;;7.83;71.64;101782.19;5007294;28;45475;-73
2022/03/14 06:05:48;;;;;;;;;7.25;5.50;;;;;7.73;71.19;101780.69;5011509;28;46083;-67
2022/03/14 06:08:14;;;;;;;;;5.25;5.25;;;;;7.77;71.45;101797.34;5004659;28;45504;-68
2022/03/14 06:10:40;;;;;;;;;6.75;5.25;;;;;7.78;71.10;101804.38;4992083;28;46076;-72
2022/03/14 06:13:05;;;;;;;;;4.25;4.25;;;;;7.72;71.60;101800.13;5014515;28;45595;-68
2022/03/14 06:15:31;;;;;;;;;8.25;5.00;;;;;7.64;71.78;101802.09;5027476;28;45490;-72
2022/03/14 06:17:56;;;;;;;;;5.25;5.25;;;;;7.67;72.22;101807.28;5002692;28;44991;-61
2022/03/14 06:20:22;;;;;;;;;5.75;4.50;;;;;7.66;71.48;101801.13;5010139;28;46286;-67
2022/03/14 06:22:47;;;;;;;;;3.75;3.75;;;;;7.68;72.03;101802.00;5000874;28;45447;-71
2022/03/14 06:25:14;;;;;;;;;5.00;4.00;;;;;7.73;71.72;101814.22;4986720;28;45234;-72
2022/03/14 06:27:40;;;;;;;;;14.00;5.75;;;;;7.66;71.89;101794.97;5009121;28;44928;-67
2022/03/14 06:30:07;;;;;;;;;9.75;6.25;;;;;7.77;71.86;101813.25;4992854;28;46493;-72
2022/03/14 06:32:41;;;;;;;;;5.50;5.25;;;;;7.68;71.79;101799.34;5005161;28;45779;-69
2022/03/14 06:35:14;;;;;;;;;5.00;5.00;;;;;7.73;71.90;101801.88;5002738;28;45420;-68
2022/03/14 06:37:40;;;;;;;;;5.25;4.00;;;;;7.84;71.68;101830.72;5000579;28;45448;-66
2022/03/14 06:40:06;;;;;;;;;8.50;5.00;;;;;7.89;71.31;101844.72;4999904;28;45376;-61
2022/03/14 06:42:32;;;;;;;;;5.75;5.50;;;;;7.88;71.55;101845.63;5005960;28;45333;-67
2022/03/14 06:45:01;;;;;;;;;9.75;5.00;;;;;7.95;71.78;101860.47;4995185;28;45375;-64
2022/03/14 06:47:27;;;;;;;;;4.00;3.50;;;;;8.02;71.54;101866.47;4983190;28;45440;-69
2022/03/14 06:49:52;;;;;;;;;9.50;6.00;;;;;8.01;71.27;101860.31;5000966;28;47061;-64
2022/03/14 06:52:18;;;;;;;;;7.50;5.25;;;;;8.10;71.19;101869.81;4996518;28;45524;-61
2022/03/14 06:54:44;;;;;;;;;8.75;4.75;;;;;8.10;70.83;101870.69;5014561;28;45219;-71
2022/03/14 06:57:10;;;;;;;;;8.50;5.00;;;;;8.18;71.25;101873.97;5017241;28;45027;-66
2022/03/14 06:59:36;;;;;;;;;2.75;1.50;;;;;8.23;70.65;101882.72;5020771;28;45409;-66
2022/03/14 07:02:03;;;;;;;;;6.00;6.00;;;;;8.31;71.19;101879.84;4990749;28;45248;-65
2022/03/14 07:04:29;;;;;;;;;12.25;7.25;;;;;8.35;70.34;101878.91;4998629;28;45604;-63
2022/03/14 07:06:55;;;;;;;;;8.50;6.00;;;;;8.42;69.94;101883.13;5024958;28;45728;-67
2022/03/14 07:09:21;;;;;;;;;6.75;6.00;;;;;8.45;69.86;101887.47;5004941;28;45551;-69
2022/03/14 07:11:51;;;;;;;;;7.50;6.50;;;;;8.50;70.46;101906.78;5004752;28;45419;-69
2022/03/14 07:14:19;;;;;;;;;5.00;3.25;;;;;8.52;69.93;101912.91;5006314;28;44802;-70
2022/03/14 07:16:44;;;;;;;;;9.00;6.25;;;;;8.48;70.08;101909.47;4998101;28;46478;-71
2022/03/14 07:19:10;;;;;;;;;7.25;7.25;;;;;8.40;70.39;101914.09;5033277;28;45399;-74
2022/03/14 07:21:36;;;;;;;;;6.00;6.00;;;;;8.49;69.94;101928.91;4996938;28;45459;-68
2022/03/14 07:24:02;;;;;;;;;7.50;6.25;;;;;8.51;70.33;101935.03;4996942;28;45548;-65
2022/03/14 07:26:27;;;;;;;;;2.50;2.50;;;;;8.50;70.19;101933.31;4986843;28;45606;-63
2022/03/14 07:28:53;;;;;;;;;10.00;6.75;;;;;8.47;70.54;101917.47;5004080;28;45402;-63
2022/03/14 07:31:22;;;;;;;;;10.25;6.00;;;;;8.65;70.35;101929.38;5019941;28;45677;-67
2022/03/14 07:33:49;;;;;;;;;5.75;5.75;;;;;8.52;70.49;101920.88;4987918;28;45122;-65
2022/03/14 07:36:15;;;;;;;;;9.00;6.50;;;;;8.64;69.98;101941.75;5011205;28;45266;-65
2022/03/14 07:38:41;;;;;;;;;11.75;8.00;;;;;8.71;70.04;101951.28;4987246;28;47755;-67
2022/03/14 07:41:10;;;;;;;;;9.75;8.50;;;;;8.74;69.29;101953.88;4993538;28;45807;-75
2022/03/14 07:43:36;;;;;;;;;6.00;6.00;;;;;8.73;69.93;101954.78;4983461;28;45318;-71
2022/03/14 07:46:02;;;;;;;;;6.50;6.50;;;;;8.77;69.33;101959.09;5004374;28;45927;-80
2022/03/14 07:48:28;;;;;;;;;9.00;5.25;;;;;8.81;68.65;101970.47;5008664;28;46514;-74
2022/03/14 07:50:53;;;;;;;;;11.75;9.00;;;;;8.82;69.19;101980.19;5005356;28;45515;-66
2022/03/14 07:53:19;;;;;;;;;6.75;6.75;;;;;8.84;69.06;101987.16;5001107;28;45558;-72
2022/03/14 07:55:45;;;;;;;;;6.50;6.25;;;;;8.79;68.78;101985.56;4998718;28;45458;-72
2022/03/14 07:58:10;;;;;;;;;11.25;8.00;;;;;8.64;68.71;101959.47;5001854;28;45412;-73
2022/03/14 08:00:36;;;;;;;;;10.25;6.75;;;;;8.76;68.48;101981.22;4987294;28;45463;-69
2022/03/14 08:03:01;;;;;;;;;14.00;9.00;;;;;8.85;68.51;101996.91;5002301;28;45491;-67
2022/03/14 08:05:27;;;;;;;;;12.25;10.25;;;;;8.89;68.39;101996.81;5008944;28;45559;-72
2022/03/14 08:07:54;;;;;;;;;9.75;8.00;;;;;8.97;68.49;102000.97;4985699;28;47171;-71
2022/03/14 08:10:21;;;;;;;;;8.50;8.50;;;;;8.97;68.47;101987.72;4998878;28;45364;-68
2022/03/14 08:12:50;;;;;;;;;8.00;6.00;;;;;8.94;67.77;101982.50;4997888;28;45582;-67
2022/03/14 08:15:27;;;;;;;;;9.00;7.00;;;;;8.99;67.99;101995.66;5004916;28;45551;-79
2022/03/14 08:17:54;;;;;;;;;12.75;9.00;;;;;8.97;68.15;101992.16;5004835;28;47754;-77
2022/03/14 08:20:22;;;;;;;;;11.50;11.00;;;;;8.95;68.23;101994.84;4991257;28;45250;-76
2022/03/14 08:22:49;;;;;;;;;10.25;9.00;;;;;8.94;67.59;102003.72;5005263;28;45764;-77
2022/03/14 08:25:14;;;;;;;;;11.75;10.00;;;;;9.02;68.03;102024.75;5005191;28;45433;-66
2022/03/14 08:27:40;;;;;;;;;14.25;9.75;;;;;9.00;67.26;102010.66;5002295;28;45484;-73
2022/03/14 08:30:07;;;;;;;;;11.50;9.75;;;;;9.03;68.10;102018.53;4988736;28;45491;-74
2022/03/14 08:32:34;;;;;;;;;11.00;9.00;;;;;9.10;67.85;102025.41;5008819;28;44897;-71
2022/03/14 08:35:07;;;;;;;;;10.50;6.50;;;;;9.03;67.48;102029.16;5008162;28;45308;-72
2022/03/14 08:37:38;;;;;;;;;11.50;9.25;;;;;9.02;67.58;102030.06;5005514;28;46062;-72
2022/03/14 08:40:05;;;;;;;;;9.75;9.75;;;;;9.08;67.98;102035.19;4982984;28;45379;-66
2022/03/14 08:42:31;;;;;;;;;13.50;10.50;;;;;9.13;68.20;102031.53;4984516;28;45724;-73
2022/03/14 08:44:57;;;;;;;;;13.50;10.25;;;;;9.20;67.68;102034.88;4984943;28;45521;-71
2022/03/14 08:47:24;;;;;;;;;6.50;6.50;;;;;9.11;67.50;102022.75;5000064;28;45626;-66
2022/03/14 08:49:50;;;;;;;;;11.00;9.75;;;;;9.27;66.67;102044.41;5000256;28;45356;-75
2022/03/14 08:52:16;;;;;;;;;14.50;11.25;;;;;9.28;66.64;102051.47;4998182;28;45274;-70
2022/03/14 08:54:41;;;;;;;;;10.50;9.25;;;;;9.05;67.32;101995.47;4984871;28;45660;-77
2022/03/14 08:57:07;;;;;;;;;10.00;10.00;;;;;9.06;66.76;101997.22;5003983;28;45345;-71
2022/03/14 08:59:32;;;;;;;;;11.25;10.50;;;;;9.29;67.30;102016.03;5011440;28;45359;-72
2022/03/14 09:01:58;;;;;;;;;14.00;12.50;;;;;9.71;66.73;102063.53;5008952;28;45170;-66
2022/03/14 09:04:23;;;;;;;;;11.00;9.50;;;;;9.87;66.07;102064.81;5004194;28;45598;-71
2022/03/14 09:06:49;;;;;;;;;14.00;11.00;;;;;10.08;66.08;102058.00;5007254;28;45288;-67
2022/03/14 09:09:14;;;;;;;;;10.75;10.75;;;;;10.20;65.55;102054.09;4994761;28;45306;-70
2022/03/14 09:11:40;;;;;;;;;13.50;11.00;;;;;10.47;64.94;102050.59;4998559;28;45637;-75
2022/03/14 09:14:06;;;;;;;;;17.00;15.75;;;;;10.70;64.52;102056.94;4998389;28;45562;-66
2022/03/14 09:16:35;;;;;;;;;16.75;11.00;;;;;10.84;64.32;102052.03;5000629;28;45329;-72
2022/03/14 09:19:00;;;;;;;;;10.75;8.00;;;;;11.14;62.75;102056.28;5005465;28;45333;-65
2022/03/14 09:21:26;;;;;;;;;11.00;9.75;;;;;11.23;63.18;102049.78;4988523;28;45238;-76
2022/03/14 09:23:52;;;;;;;;;11.50;10.00;;;;;11.43;62.63;102057.91;5004056;28;45563;-67
2022/03/14 09:26:17;;;;;;;;;12.50;11.00;;;;;11.65;61.64;102058.00;5001067;28;45442;-77
2022/03/14 09:28:44;;;;;;;;;11.50;9.75;;;;;11.90;61.76;102057.97;5004261;28;45274;-73
2022/03/14 09:31:13;;;;;;;;;13.00;11.75;;;;;12.10;60.56;102066.06;5005739;28;45551;-74
2022/03/14 09:33:39;;;;;;;;;16.25;12.25;;;;;12.31;60.45;102069.69;5006894;28;45500;-69
2022/03/14 09:36:05;;;;;;;;;13.75;11.00;;;;;12.52;59.74;102077.78;4999422;28;46334;-79
2022/03/14 09:38:31;;;;;;;;;12.75;10.50;;;;;12.62;59.07;102077.31;4976014;28;45314;-78
2022/03/14 09:41:01;;;;;;;;;10.00;10.00;;;;;12.69;58.86;102059.28;5003498;28;45437;-77
2022/03/14 09:43:28;;;;;;;;;14.75;10.50;;;;;12.98;58.34;102066.03;5007112;28;45523;-78
2022/03/14 09:45:55;;;;;;;;;14.75;13.00;;;;;12.97;58.66;102065.19;5005556;28;45259;-78
2022/03/14 09:48:25;;;;;;;;;12.67;9.00;;;;;13.00;57.90;102058.81;5007801;28;45337;-71
2022/03/14 09:50:53;;;;;;;;;14.67;9.67;;;;;13.12;57.58;102068.13;4989533;28;45432;-66
2022/03/14 09:53:19;;;;;;;;;12.00;11.67;;;;;13.14;57.51;102050.22;4991604;28;45704;-75
2022/03/14 09:55:47;;;;;;;;;13.67;10.00;;;;;13.28;56.94;102069.22;5006071;28;45462;-74
2022/03/14 09:58:16;;;;;;;;;9.67;7.00;;;;;13.25;56.73;102077.38;5004233;28;45444;-69
2022/03/14 10:00:42;;;;;;;;;8.00;8.00;;;;;13.26;57.58;102076.44;5008560;28;45420;-70
2022/03/14 10:03:08;;;;;;;;;13.67;10.00;;;;;13.20;56.96;102066.03;5012368;28;44866;-75
2022/03/14 10:05:35;;;;;;;;;13.00;12.33;;;;;13.09;56.94;102066.47;4995702;28;46919;-77
2022/03/14 10:08:01;;;;;;;;;19.33;10.33;;;;;13.10;57.07;102086.03;5009908;28;45195;-62
2022/03/14 10:10:27;;;;;;;;;8.67;8.67;;;;;12.95;57.11;102080.41;4989886;28;45290;-77
2022/03/14 10:12:53;;;;;;;;;11.00;9.00;;;;;12.82;57.39;102056.94;5006858;28;45497;-74
2022/03/14 10:15:21;;;;;;;;;14.00;9.00;;;;;12.99;57.80;102079.31;5005435;28;45504;-69
2022/03/14 10:17:47;;;;;;;;;16.67;11.33;;;;;12.95;57.63;102071.53;5010334;28;45380;-69
2022/03/14 10:20:15;;;;;;;;;11.75;9.50;;;;;12.80;57.48;102074.84;4997988;28;45430;-68
2022/03/14 10:22:41;;;;;;;;;10.33;10.33;;;;;12.80;57.86;102088.19;4997295;28;45511;-78
2022/03/14 10:25:18;;;;;;;;;12.75;9.50;;;;;12.62;57.85;102077.31;5004978;28;45361;-79
2022/03/14 10:27:51;;;;;;;;;9.00;9.00;;;;;12.62;57.82;102079.13;5004892;28;45484;-76
2022/03/14 10:30:33;;;;;;;;;15.00;13.00;;;;;12.72;58.57;102099.16;5007665;28;45353;-72
2022/03/14 10:33:08;;;;;;;;;9.00;9.00;;;;;12.64;57.22;102104.84;5007832;28;45459;-74
2022/03/14 10:35:38;;;;;;;;;15.67;12.33;;;;;12.57;58.12;102086.47;5000803;28;45611;-73
2022/03/14 10:38:06;;;;;;;;;9.33;8.33;;;;;12.72;58.29;102100.97;4984337;28;45531;-76
2022/03/14 10:40:35;;;;;;;;;13.25;11.75;;;;;12.66;57.46;102075.41;5006202;28;45398;-78
2022/03/14 10:43:01;;;;;;;;;12.00;9.00;;;;;12.72;57.30;102079.63;5005211;28;45210;-70
2022/03/14 10:45:30;;;;;;;;;9.33;7.00;;;;;12.72;57.69;102085.81;5009144;28;46134;-67
2022/03/14 10:47:57;;;;;;;;;11.33;8.00;;;;;12.91;57.12;102097.50;5011288;28;45403;-65
2022/03/14 10:50:37;;;;;;;;;11.67;9.00;;;;;12.80;56.73;102062.34;5010384;28;45409;-65
2022/03/14 10:53:05;;;;;;;;;8.67;8.67;;;;;13.05;56.84;102088.91;4980625;28;45572;-66
2022/03/14 10:55:42;;;;;;;;;15.00;9.33;;;;;13.16;56.36;102093.78;4997876;28;45411;-74
2022/03/14 10:58:13;;;;;;;;;9.33;8.33;;;;;13.26;55.76;102093.34;5014509;28;45380;-71
2022/03/14 11:00:49;;;;;;;;;9.67;7.67;;;;;13.32;55.63;102078.84;5015647;28;45434;-71
2022/03/14 11:03:47;;;;;;;;;9.67;8.67;;;;;13.41;54.42;102080.22;5022179;28;45446;-68
2022/03/14 11:06:18;;;;;;;;;9.00;8.00;;;;;13.44;54.61;102088.13;4996661;28;46308;-66
2022/03/14 11:08:47;;;;;;;;;6.33;6.00;;;;;13.57;53.23;102097.34;4987193;28;45234;-68
2022/03/14 11:11:14;;;;;;;;;11.67;7.00;;;;;13.64;54.67;102095.25;4985412;28;44804;-67
2022/03/14 11:13:43;;;;;;;;;5.67;5.00;;;;;13.72;53.34;102095.78;4998748;28;45456;-66
2022/03/14 11:16:26;;;;;;;;;7.00;4.33;;;;;13.86;53.71;102082.66;5009103;28;45640;-70
2022/03/14 11:18:52;;;;;;;;;8.50;8.50;;;;;13.92;53.13;102082.34;5030338;28;45649;-66
2022/03/14 11:21:27;;;;;;;;;8.67;8.67;;;;;14.06;52.74;102087.06;4997731;28;45199;-72
2022/03/14 11:23:58;;;;;;;;;8.33;7.33;;;;;14.12;53.19;102086.78;5013000;28;44754;-67
2022/03/14 11:26:25;;;;;;;;;10.00;10.00;;;;;14.20;51.71;102086.44;4995008;28;45427;-72